Perrys Mills, New York
Current Conditions -  °F | °C
As of 6:15 AM on Monday 22 Dec 2014 (Local Time) from KFSO Reporting Station
Haze Haze  
Wind Chill: 16°   Ceiling: 600
Heat Index: 16°   Visibility: 5mi
Dew Point: 14°   Wind: 0mph
Humidity: 93%   Direction: NA
Pressure: 30.4"   Gusts: NA
Location:  44.9684°N, 73.45°W
Report Text: KFSO 221115Z AUTO 00000KT 5SM BR OVC006 M09/M10 A3040 RMK AO2 T10901100
Loading
Personal Weather Stations






























Interactive Weather Map New forecast layout! Learn more

10-Day Weather Forecast

Advertisements
Track Severe Weather on mobile